createdAt,value
2023-05-24T00:02:27.075Z,10.40
2023-05-24T00:04:54.357Z,10.50
2023-05-24T00:07:21.681Z,10.50
2023-05-24T00:09:49.089Z,10.40
2023-05-24T00:12:16.768Z,10.30
2023-05-24T00:14:43.731Z,10.40
2023-05-24T00:17:10.763Z,10.40
2023-05-24T00:19:38.483Z,10.40
2023-05-24T00:22:05.824Z,10.40
2023-05-24T00:24:32.903Z,10.30
2023-05-24T00:26:59.868Z,10.30
2023-05-24T00:29:26.860Z,10.30
2023-05-24T00:31:53.886Z,10.20
2023-05-24T00:34:21.032Z,10.10
2023-05-24T00:36:48.053Z,10.10
2023-05-24T00:39:15.117Z,10.10
2023-05-24T00:41:42.127Z,9.90
2023-05-24T00:44:11.090Z,9.90
2023-05-24T00:46:38.974Z,9.90
2023-05-24T00:49:06.192Z,9.80
2023-05-24T00:51:34.174Z,9.90
2023-05-24T00:54:01.324Z,9.80
2023-05-24T00:56:28.813Z,9.90
2023-05-24T00:58:56.497Z,9.90
2023-05-24T01:01:31.161Z,9.80
2023-05-24T01:04:00.597Z,9.70
2023-05-24T01:06:29.223Z,9.50
2023-05-24T01:09:10.242Z,9.30
2023-05-24T01:12:00.933Z,9.20
2023-05-24T01:14:53.654Z,9.30
2023-05-24T01:17:46.651Z,9.40
2023-05-24T01:20:15.162Z,9.40
2023-05-24T01:22:51.154Z,9.30
2023-05-24T01:25:42.014Z,9.30
2023-05-24T01:28:10.877Z,9.30
2023-05-24T01:30:42.629Z,9.30
2023-05-24T01:33:10.001Z,9.30
2023-05-24T01:35:40.685Z,9.30
2023-05-24T01:38:07.912Z,9.40
2023-05-24T01:40:36.022Z,9.30
2023-05-24T01:43:41.305Z,9.10
2023-05-24T01:46:36.602Z,9.00
2023-05-24T01:49:29.706Z,8.90
2023-05-24T01:52:05.718Z,8.90
2023-05-24T01:54:38.262Z,8.90
2023-05-24T01:57:09.396Z,8.80
2023-05-24T01:59:38.306Z,8.70
2023-05-24T02:02:05.911Z,8.70
2023-05-24T02:04:33.474Z,8.70
2023-05-24T02:07:00.589Z,8.70
2023-05-24T02:09:27.577Z,8.80
2023-05-24T02:11:54.595Z,8.80
2023-05-24T02:14:21.597Z,8.90
2023-05-24T02:16:50.890Z,8.80
2023-05-24T02:19:18.175Z,8.70
2023-05-24T02:21:45.189Z,8.60
2023-05-24T02:24:12.664Z,8.70
2023-05-24T02:26:40.031Z,8.70
2023-05-24T02:29:07.197Z,8.70
2023-05-24T02:31:34.234Z,8.60
2023-05-24T02:34:01.343Z,8.40
2023-05-24T02:36:28.598Z,8.40
2023-05-24T02:38:57.000Z,8.30
2023-05-24T02:41:24.487Z,8.20
2023-05-24T02:43:51.505Z,8.30
2023-05-24T02:46:18.538Z,8.40
2023-05-24T02:48:46.138Z,8.40
2023-05-24T02:51:13.090Z,8.50
2023-05-24T02:53:40.083Z,8.60
2023-05-24T02:56:08.038Z,8.60
2023-05-24T02:58:35.264Z,8.60
2023-05-24T03:01:02.274Z,8.60
2023-05-24T03:03:29.370Z,8.60
2023-05-24T03:05:56.548Z,8.60
2023-05-24T03:08:24.054Z,8.40
2023-05-24T03:10:50.997Z,8.30
2023-05-24T03:13:17.922Z,8.10
2023-05-24T03:15:45.414Z,8.10
2023-05-24T03:18:12.678Z,8.20
2023-05-24T03:20:39.731Z,8.30
2023-05-24T03:23:06.719Z,8.30
2023-05-24T03:25:33.867Z,8.40
2023-05-24T03:28:02.721Z,8.40
2023-05-24T03:30:30.140Z,8.40
2023-05-24T03:32:57.258Z,8.40
2023-05-24T03:35:24.982Z,8.30
2023-05-24T03:37:51.984Z,8.10
2023-05-24T03:40:19.263Z,8.00
2023-05-24T03:42:46.455Z,7.90
2023-05-24T03:45:16.073Z,8.00
2023-05-24T03:47:46.542Z,7.90
2023-05-24T03:50:14.632Z,8.00
2023-05-24T03:52:43.171Z,8.00
2023-05-24T03:55:10.232Z,8.00
2023-05-24T03:57:37.177Z,8.00
2023-05-24T04:00:07.263Z,8.00
2023-05-24T04:02:34.328Z,7.80
2023-05-24T04:05:01.935Z,7.80
2023-05-24T04:07:29.107Z,7.80
2023-05-24T04:09:56.088Z,7.80
2023-05-24T04:12:23.276Z,7.80
2023-05-24T04:14:51.958Z,7.80
2023-05-24T04:17:18.995Z,7.80
2023-05-24T04:19:47.226Z,7.80
2023-05-24T04:22:14.152Z,7.80
2023-05-24T04:24:41.394Z,7.80
2023-05-24T04:27:10.215Z,8.00
2023-05-24T04:29:40.186Z,8.00
2023-05-24T04:32:07.608Z,8.20
2023-05-24T04:34:35.842Z,8.30
2023-05-24T04:37:03.728Z,8.40
2023-05-24T04:39:31.414Z,8.40
2023-05-24T04:41:59.262Z,8.50
2023-05-24T04:44:26.331Z,8.50
2023-05-24T04:46:54.487Z,8.60
2023-05-24T04:49:22.790Z,8.60
2023-05-24T04:51:49.829Z,8.60
2023-05-24T04:54:18.534Z,8.60
2023-05-24T04:56:46.011Z,8.60
2023-05-24T04:59:13.059Z,8.60
2023-05-24T05:01:40.139Z,8.80
2023-05-24T05:04:08.089Z,8.90
2023-05-24T05:06:38.810Z,8.90
2023-05-24T05:09:09.692Z,9.00
2023-05-24T05:11:37.431Z,9.00
2023-05-24T05:14:04.787Z,9.10
2023-05-24T05:16:32.068Z,9.20
2023-05-24T05:18:59.290Z,9.20
2023-05-24T05:21:26.240Z,9.20
2023-05-24T05:23:54.868Z,9.10
2023-05-24T05:26:22.417Z,9.10
2023-05-24T05:28:49.394Z,9.20
2023-05-24T05:31:16.454Z,9.30
2023-05-24T05:33:43.421Z,9.40
2023-05-24T05:36:10.600Z,9.50
2023-05-24T05:38:37.870Z,9.60
2023-05-24T05:41:04.862Z,9.80
2023-05-24T05:43:32.071Z,9.80
2023-05-24T05:46:00.799Z,9.90
2023-05-24T05:48:28.026Z,10.00
2023-05-24T05:50:54.999Z,10.10
2023-05-24T05:53:21.994Z,10.30
2023-05-24T05:55:49.008Z,10.40
2023-05-24T05:58:16.374Z,10.50
2023-05-24T06:00:43.503Z,10.50
2023-05-24T06:03:11.063Z,10.70
2023-05-24T06:05:38.251Z,10.70
2023-05-24T06:08:05.503Z,10.80
2023-05-24T06:10:32.441Z,10.90
2023-05-24T06:13:01.890Z,10.90
2023-05-24T06:15:29.579Z,11.00
2023-05-24T06:17:56.597Z,11.00
2023-05-24T06:20:23.789Z,11.10
2023-05-24T06:22:50.935Z,11.20
2023-05-24T06:25:21.100Z,11.20
2023-05-24T06:27:48.140Z,11.40
2023-05-24T06:30:15.448Z,11.40
2023-05-24T06:32:42.467Z,11.40
2023-05-24T06:35:10.164Z,11.50
2023-05-24T06:37:38.612Z,11.60
2023-05-24T06:40:08.884Z,11.70
2023-05-24T06:42:37.414Z,11.80
2023-05-24T06:45:04.681Z,11.90
2023-05-24T06:47:32.163Z,11.90
2023-05-24T06:49:59.180Z,12.00
2023-05-24T06:52:26.204Z,12.00
2023-05-24T06:54:53.660Z,12.00
2023-05-24T06:57:20.873Z,12.00
2023-05-24T06:59:48.101Z,12.00
2023-05-24T07:02:15.366Z,12.10
2023-05-24T07:04:42.510Z,12.10
2023-05-24T07:07:12.848Z,12.20
2023-05-24T07:09:41.933Z,12.20
2023-05-24T07:12:09.419Z,12.30
2023-05-24T07:14:36.968Z,12.50
2023-05-24T07:17:04.825Z,12.60
2023-05-24T07:19:33.872Z,12.80
2023-05-24T07:22:00.862Z,12.90
2023-05-24T07:24:27.999Z,13.10
2023-05-24T07:26:57.030Z,13.40
2023-05-24T07:29:24.589Z,13.60
2023-05-24T07:31:52.203Z,13.70
2023-05-24T07:34:21.780Z,13.80
2023-05-24T07:36:49.629Z,13.80
2023-05-24T07:39:16.891Z,13.90
2023-05-24T07:41:44.050Z,13.80
2023-05-24T07:44:12.262Z,13.80
2023-05-24T07:46:39.704Z,14.30
2023-05-24T07:49:07.270Z,14.70
2023-05-24T07:51:34.387Z,15.20
2023-05-24T07:54:01.660Z,15.60
2023-05-24T07:56:28.625Z,16.00
2023-05-24T07:59:00.783Z,16.00
2023-05-24T08:01:29.164Z,16.00
2023-05-24T08:03:56.669Z,15.80
2023-05-24T08:06:24.361Z,15.50
2023-05-24T08:08:51.335Z,15.30
2023-05-24T08:11:18.287Z,15.40
2023-05-24T08:13:45.671Z,15.50
2023-05-24T08:16:12.874Z,15.80
2023-05-24T08:18:40.391Z,16.30
2023-05-24T08:21:09.050Z,16.70
2023-05-24T08:23:36.452Z,17.10
2023-05-24T08:26:03.484Z,17.50
2023-05-24T08:28:30.597Z,17.40
2023-05-24T08:30:58.798Z,17.70
2023-05-24T08:33:26.106Z,18.10
2023-05-24T08:35:53.333Z,18.20
2023-05-24T08:38:20.293Z,18.40
2023-05-24T08:40:48.313Z,18.50
2023-05-24T08:43:15.683Z,18.70
2023-05-24T08:45:43.512Z,18.70
2023-05-24T08:48:11.180Z,18.70
2023-05-24T08:50:38.432Z,18.80
2023-05-24T08:53:07.397Z,18.60
2023-05-24T08:55:35.359Z,18.60
2023-05-24T08:58:02.404Z,19.00
2023-05-24T09:00:29.568Z,19.20
2023-05-24T09:02:58.985Z,19.30
2023-05-24T09:05:26.490Z,19.20
2023-05-24T09:07:55.998Z,19.00
2023-05-24T09:10:24.095Z,19.10
2023-05-24T09:12:58.555Z,19.40
2023-05-24T09:15:26.212Z,20.00
2023-05-24T09:17:53.789Z,19.50
2023-05-24T09:20:22.140Z,18.90
2023-05-24T09:22:52.292Z,18.50
2023-05-24T09:25:23.613Z,18.40
2023-05-24T09:27:52.914Z,18.40
2023-05-24T09:30:21.955Z,18.60
2023-05-24T09:33:00.912Z,18.50
2023-05-24T09:35:28.769Z,18.80
2023-05-24T09:38:02.277Z,18.80
2023-05-24T09:40:30.289Z,19.00
2023-05-24T09:43:09.239Z,18.90
2023-05-24T09:45:47.084Z,18.60
2023-05-24T09:48:16.690Z,18.20
2023-05-24T09:50:47.578Z,18.00
2023-05-24T09:53:19.065Z,17.60
2023-05-24T09:55:46.425Z,17.50
2023-05-24T09:58:13.979Z,17.90
2023-05-24T10:06:27.979Z,18.60
2023-05-24T10:14:27.111Z,18.70
2023-05-24T10:16:54.462Z,19.20
2023-05-24T10:19:22.023Z,19.10
2023-05-24T10:21:49.977Z,18.60
2023-05-24T10:24:22.247Z,18.30
2023-05-24T10:26:50.801Z,18.30
2023-05-24T10:29:42.139Z,18.20
2023-05-24T10:32:09.844Z,18.50
2023-05-24T10:56:13.837Z,20.60
2023-05-24T10:58:58.044Z,20.40
2023-05-24T11:01:33.942Z,20.50
2023-05-24T11:04:12.948Z,20.90
2023-05-24T11:06:49.840Z,20.90
2023-05-24T11:09:22.591Z,21.00
2023-05-24T11:12:00.458Z,21.30
2023-05-24T11:14:29.352Z,21.30
2023-05-24T11:17:00.441Z,21.50
2023-05-24T11:19:39.369Z,21.80
2023-05-24T11:22:09.809Z,22.20
2023-05-24T11:24:37.607Z,22.00
2023-05-24T11:27:06.252Z,21.70
2023-05-24T11:29:34.881Z,21.80
2023-05-24T11:32:08.133Z,22.10
2023-05-24T11:34:35.728Z,21.80
2023-05-24T11:37:03.515Z,21.50
2023-05-24T11:39:35.839Z,21.20
2023-05-24T11:42:07.132Z,20.60
2023-05-24T11:44:38.255Z,20.80
2023-05-24T11:47:07.723Z,20.80
2023-05-24T11:49:34.974Z,21.00
2023-05-24T11:52:02.869Z,20.90
2023-05-24T11:54:32.865Z,20.60
2023-05-24T11:57:00.211Z,20.20
2023-05-24T11:59:29.340Z,20.00
2023-05-24T12:02:00.768Z,20.50
2023-05-24T12:04:29.615Z,21.10
2023-05-24T12:06:57.098Z,21.80
2023-05-24T12:09:24.906Z,22.20
2023-05-24T12:11:53.349Z,22.30
2023-05-24T12:14:25.507Z,22.60
2023-05-24T12:16:58.548Z,23.20
2023-05-24T12:19:33.524Z,23.10
2023-05-24T12:22:05.398Z,23.60
2023-05-24T12:24:32.954Z,24.00
2023-05-24T12:27:08.110Z,23.90
2023-05-24T12:29:37.018Z,23.40
2023-05-24T12:32:04.743Z,22.80
2023-05-24T12:34:32.611Z,22.40
2023-05-24T12:37:00.342Z,21.80
2023-05-24T12:39:32.384Z,21.40
2023-05-24T12:42:01.930Z,20.80
2023-05-24T12:44:36.997Z,20.70
2023-05-24T12:47:08.868Z,21.20
2023-05-24T12:49:36.480Z,21.60
2023-05-24T12:52:03.798Z,21.70
2023-05-24T12:54:31.324Z,21.90
2023-05-24T12:57:03.455Z,22.10
2023-05-24T12:59:31.061Z,22.10
2023-05-24T13:01:58.166Z,22.40
2023-05-24T13:04:28.403Z,22.90
2023-05-24T13:06:55.913Z,23.30
2023-05-24T13:09:24.090Z,23.80
2023-05-24T13:11:52.751Z,23.90
2023-05-24T13:14:21.563Z,24.20
2023-05-24T13:16:49.588Z,24.40
2023-05-24T13:19:17.473Z,24.20
2023-05-24T13:21:45.074Z,23.90
2023-05-24T13:24:14.982Z,23.50
2023-05-24T13:26:42.129Z,24.30
2023-05-24T13:31:41.241Z,23.80
2023-05-24T13:34:11.194Z,23.40
2023-05-24T13:36:38.500Z,23.40
2023-05-24T13:41:38.930Z,24.80
2023-05-24T13:44:07.412Z,25.50
2023-05-24T13:46:34.662Z,25.70
2023-05-24T13:49:02.326Z,26.00
2023-05-24T13:51:29.580Z,25.90
2023-05-24T13:53:56.899Z,25.80
2023-05-24T13:56:25.152Z,25.80
2023-05-24T13:58:53.736Z,25.70
2023-05-24T14:01:20.989Z,25.50
2023-05-24T14:03:48.155Z,25.50
2023-05-24T14:06:15.353Z,25.60
2023-05-24T14:08:42.717Z,25.60
2023-05-24T14:11:10.988Z,25.70
2023-05-24T14:16:09.169Z,26.20
2023-05-24T14:18:36.607Z,26.00
2023-05-24T14:21:03.967Z,26.30
2023-05-24T14:23:33.113Z,26.00
2023-05-24T14:26:00.568Z,25.80
2023-05-24T14:28:27.919Z,26.00
2023-05-24T14:30:54.848Z,26.50
2023-05-24T14:33:21.822Z,26.20
2023-05-24T14:35:50.389Z,26.00
2023-05-24T14:38:17.861Z,26.10
2023-05-24T14:40:47.581Z,25.90
2023-05-24T14:43:14.834Z,26.30
2023-05-24T14:45:42.758Z,26.30
2023-05-24T14:48:11.880Z,26.30
2023-05-24T14:50:40.686Z,26.30
2023-05-24T14:53:12.155Z,26.20
2023-05-24T14:55:44.272Z,26.20
2023-05-24T14:58:12.293Z,26.10
2023-05-24T15:00:40.473Z,26.00
2023-05-24T15:03:13.124Z,25.90
2023-05-24T15:05:41.761Z,25.70
2023-05-24T15:08:10.976Z,25.50
2023-05-24T15:10:39.385Z,25.30
2023-05-24T15:13:06.799Z,24.70
2023-05-24T15:15:33.864Z,24.70
2023-05-24T15:18:00.979Z,24.40
2023-05-24T15:20:28.195Z,24.40
2023-05-24T15:22:55.275Z,24.40
2023-05-24T15:25:23.553Z,24.30
2023-05-24T15:27:50.532Z,24.30
2023-05-24T15:30:19.760Z,24.40
2023-05-24T15:32:47.679Z,24.20
2023-05-24T15:35:15.046Z,24.00
2023-05-24T15:37:43.023Z,23.90
2023-05-24T15:40:10.956Z,24.00
2023-05-24T15:42:38.597Z,24.00
2023-05-24T15:45:07.412Z,23.80
2023-05-24T15:47:40.017Z,23.70
2023-05-24T15:50:08.672Z,23.80
2023-05-24T15:52:36.219Z,23.80
2023-05-24T15:55:03.911Z,23.70
2023-05-24T15:57:31.456Z,23.70
2023-05-24T15:59:58.462Z,23.60
2023-05-24T16:02:25.852Z,23.60
2023-05-24T16:04:53.213Z,23.60
2023-05-24T16:07:20.738Z,23.30
2023-05-24T16:09:50.223Z,23.20
2023-05-24T16:12:20.583Z,23.10
2023-05-24T16:14:47.582Z,22.60
2023-05-24T16:17:18.149Z,22.10
2023-05-24T16:19:49.765Z,22.00
2023-05-24T16:22:17.073Z,21.80
2023-05-24T16:24:44.788Z,21.50
2023-05-24T16:27:11.998Z,21.10
2023-05-24T16:29:39.590Z,21.00
2023-05-24T16:32:07.756Z,20.70
2023-05-24T16:34:51.956Z,20.30
2023-05-24T16:37:22.055Z,20.20
2023-05-24T16:39:49.041Z,19.90
2023-05-24T16:42:16.116Z,19.80
2023-05-24T16:44:43.404Z,19.60
2023-05-24T16:47:10.941Z,19.30
2023-05-24T16:49:38.113Z,18.80
2023-05-24T16:52:05.414Z,18.70
2023-05-24T16:54:32.605Z,18.50
2023-05-24T16:56:59.702Z,18.50
2023-05-24T16:59:26.848Z,18.40
2023-05-24T17:01:54.200Z,18.30
2023-05-24T17:04:21.349Z,18.30
2023-05-24T17:06:48.494Z,18.20
2023-05-24T17:09:16.203Z,18.10
2023-05-24T17:11:43.211Z,18.00
2023-05-24T17:14:10.229Z,18.00
2023-05-24T17:16:37.446Z,18.00
2023-05-24T17:19:04.578Z,18.00
2023-05-24T17:21:31.599Z,18.00
2023-05-24T17:24:00.629Z,18.00
2023-05-24T17:26:27.932Z,18.00
2023-05-24T17:28:55.073Z,17.90
2023-05-24T17:31:22.732Z,17.70
2023-05-24T17:33:49.705Z,17.60
2023-05-24T17:36:16.749Z,17.60
2023-05-24T17:38:44.003Z,17.50
2023-05-24T17:41:11.078Z,17.50
2023-05-24T17:43:40.229Z,17.40
2023-05-24T17:46:07.783Z,17.40
2023-05-24T17:48:39.604Z,17.30
2023-05-24T17:51:10.879Z,17.20
2023-05-24T17:53:38.544Z,17.10
2023-05-24T17:56:06.240Z,17.10
2023-05-24T17:58:36.837Z,17.10
2023-05-24T18:01:05.535Z,16.90
2023-05-24T18:03:38.420Z,16.90
2023-05-24T18:06:07.415Z,16.90
2023-05-24T18:08:38.031Z,16.90
2023-05-24T18:11:08.798Z,16.90
2023-05-24T18:13:37.604Z,16.90
2023-05-24T18:16:04.910Z,16.80
2023-05-24T18:18:32.968Z,16.70
2023-05-24T18:21:00.055Z,16.70
2023-05-24T18:23:27.089Z,16.60
2023-05-24T18:26:00.372Z,16.60
2023-05-24T18:28:28.596Z,16.50
2023-05-24T18:30:55.701Z,16.60
2023-05-24T18:33:22.994Z,16.40
2023-05-24T18:35:50.600Z,16.40
2023-05-24T18:38:17.809Z,16.30
2023-05-24T18:40:44.797Z,16.30
2023-05-24T18:43:11.796Z,16.30
2023-05-24T18:45:38.888Z,16.20
2023-05-24T18:48:06.445Z,16.20
2023-05-24T18:50:33.726Z,16.20
2023-05-24T18:53:00.750Z,16.10
2023-05-24T18:55:28.663Z,16.00
2023-05-24T18:57:56.124Z,15.90
2023-05-24T19:00:24.621Z,15.90
2023-05-24T19:02:52.105Z,15.70
2023-05-24T19:05:20.172Z,15.70
2023-05-24T19:07:47.453Z,15.70
2023-05-24T19:10:14.447Z,15.70
2023-05-24T19:12:41.691Z,15.70
2023-05-24T19:15:09.133Z,15.60
2023-05-24T19:17:36.295Z,15.60
2023-05-24T19:20:04.052Z,15.50
2023-05-24T19:22:31.041Z,15.50
2023-05-24T19:24:58.218Z,15.30
2023-05-24T19:27:25.239Z,15.20
2023-05-24T19:29:52.290Z,15.20
2023-05-24T19:32:20.592Z,15.10
2023-05-24T19:34:47.698Z,15.00
2023-05-24T19:37:15.868Z,15.10
2023-05-24T19:39:42.952Z,15.00
2023-05-24T19:42:11.084Z,14.80
2023-05-24T19:44:38.053Z,14.70
2023-05-24T19:47:05.659Z,14.50
2023-05-24T19:49:32.618Z,14.30
2023-05-24T19:51:59.583Z,14.40
2023-05-24T19:54:26.793Z,14.40
2023-05-24T19:56:55.961Z,14.30
2023-05-24T19:59:22.913Z,14.20
2023-05-24T20:01:49.988Z,14.20
2023-05-24T20:04:17.051Z,14.10
2023-05-24T20:06:44.162Z,14.00
2023-05-24T20:09:11.570Z,14.00
2023-05-24T20:11:38.535Z,13.90
2023-05-24T20:14:05.564Z,13.80
2023-05-24T20:16:32.686Z,13.80
2023-05-24T20:18:59.680Z,13.90
2023-05-24T20:21:26.673Z,13.80
2023-05-24T20:23:58.168Z,13.70
2023-05-24T20:26:26.192Z,13.50
2023-05-24T20:28:53.324Z,13.40
2023-05-24T20:31:20.448Z,13.20
2023-05-24T20:33:49.096Z,13.10
2023-05-24T20:36:16.354Z,12.80
2023-05-24T20:38:43.356Z,12.90
2023-05-24T20:41:10.310Z,12.70
2023-05-24T20:43:37.523Z,12.50
2023-05-24T20:46:04.576Z,12.30
2023-05-24T20:48:31.584Z,12.20
2023-05-24T20:50:58.652Z,12.10
2023-05-24T20:53:26.071Z,12.00
2023-05-24T20:55:53.667Z,12.00
2023-05-24T20:58:20.866Z,11.90
2023-05-24T21:00:47.866Z,11.90
2023-05-24T21:03:14.988Z,11.70
2023-05-24T21:05:42.467Z,11.60
2023-05-24T21:08:09.554Z,11.60
2023-05-24T21:10:38.173Z,11.60
2023-05-24T21:13:05.706Z,11.40
2023-05-24T21:15:32.731Z,11.40
2023-05-24T21:18:00.157Z,11.40
2023-05-24T21:20:27.520Z,11.40
2023-05-24T21:22:54.635Z,11.40
2023-05-24T21:25:21.890Z,11.50
2023-05-24T21:27:49.139Z,11.70
2023-05-24T21:30:16.396Z,11.70
2023-05-24T21:32:43.578Z,11.70
2023-05-24T21:35:10.712Z,11.70
2023-05-24T21:37:37.921Z,11.80
2023-05-24T21:40:06.071Z,11.90
2023-05-24T21:42:33.228Z,12.10
2023-05-24T21:45:00.288Z,12.00
2023-05-24T21:47:27.323Z,12.00
2023-05-24T21:49:55.245Z,12.00
2023-05-24T21:52:23.330Z,11.80
2023-05-24T21:54:50.513Z,11.80
2023-05-24T21:57:17.498Z,11.80
2023-05-24T21:59:44.495Z,11.80
2023-05-24T22:02:11.665Z,11.70
2023-05-24T22:04:38.875Z,11.60
2023-05-24T22:07:06.694Z,11.40
2023-05-24T22:09:34.055Z,11.50
2023-05-24T22:12:01.988Z,11.40
2023-05-24T22:14:29.316Z,11.20
2023-05-24T22:16:56.498Z,11.30
2023-05-24T22:19:38.834Z,11.30
2023-05-24T22:22:08.410Z,11.30
2023-05-24T22:24:35.827Z,11.40
2023-05-24T22:27:03.287Z,11.30
2023-05-24T22:29:30.441Z,11.10
2023-05-24T22:31:57.748Z,11.00
2023-05-24T22:34:29.148Z,10.80
2023-05-24T22:36:57.761Z,10.70
2023-05-24T22:39:24.980Z,10.70
2023-05-24T22:41:52.790Z,10.50
2023-05-24T22:44:20.304Z,10.50
2023-05-24T22:46:53.719Z,10.30
2023-05-24T22:49:20.972Z,10.20
2023-05-24T22:51:50.445Z,10.00
2023-05-24T22:54:18.350Z,10.00
2023-05-24T22:56:46.750Z,10.00
2023-05-24T22:59:13.760Z,9.90
2023-05-24T23:01:40.945Z,9.90
2023-05-24T23:04:20.671Z,10.00
2023-05-24T23:06:52.943Z,10.00
2023-05-24T23:09:29.401Z,9.90
2023-05-24T23:11:58.585Z,9.90
2023-05-24T23:14:25.989Z,9.90
2023-05-24T23:16:53.125Z,9.80
2023-05-24T23:19:22.187Z,9.80
2023-05-24T23:21:52.393Z,9.80
2023-05-24T23:24:19.780Z,9.70
2023-05-24T23:26:46.795Z,9.60
2023-05-24T23:29:13.955Z,9.60
2023-05-24T23:31:41.051Z,9.60
2023-05-24T23:34:08.167Z,9.40
2023-05-24T23:36:35.216Z,9.40
2023-05-24T23:39:02.222Z,9.40
2023-05-24T23:41:29.192Z,9.40
2023-05-24T23:43:56.197Z,9.40
2023-05-24T23:46:23.737Z,9.30
2023-05-24T23:48:50.886Z,9.40
2023-05-24T23:51:19.586Z,9.40
2023-05-24T23:53:46.614Z,9.50
2023-05-24T23:56:13.612Z,9.50
2023-05-24T23:58:42.052Z,9.50
